Time;durP1;ratioP1;P1;durP2;ratioP2;P2;SDS_P1;SDS_P2;PMS_P1;PMS_P2;Temp;Humidity;BMP_temperature;BMP_pressure;BME280_temperature;BME280_humidity;BME280_pressure;Samples;Min_cycle;Max_cycle;Signal;HPM_P1;HPM_P2
2023/12/02 00:01:14;;;;;;;8.32;4.93;;;;;;;;;;4971368;28;20105;-88
2023/12/02 00:03:40;;;;;;;6.38;4.50;;;;;;;;;;4967091;28;20051;-87
2023/12/02 00:06:06;;;;;;;6.57;4.70;;;;;;;;;;4972271;28;20089;-87
2023/12/02 00:08:31;;;;;;;6.60;4.50;;;;;;;;;;4969984;28;20043;-87
2023/12/02 00:10:57;;;;;;;6.20;4.55;;;;;;;;;;4965148;28;20698;-87
2023/12/02 00:13:24;;;;;;;6.22;4.47;;;;;;;;;;4966090;28;20130;-88
2023/12/02 00:15:49;;;;;;;5.53;4.03;;;;;;;;;;4970077;28;20039;-88
2023/12/02 00:18:14;;;;;;;7.00;4.60;;;;;;;;;;4965036;28;20039;-87
2023/12/02 00:20:40;;;;;;;6.28;4.35;;;;;;;;;;4964619;28;20031;-89
2023/12/02 00:23:05;;;;;;;6.68;4.28;;;;;;;;;;4968722;28;20085;-87
2023/12/02 00:25:31;;;;;;;5.63;4.30;;;;;;;;;;4967197;28;20043;-86
2023/12/02 00:27:56;;;;;;;6.07;4.20;;;;;;;;;;4967190;28;20732;-87
2023/12/02 00:30:22;;;;;;;5.30;4.05;;;;;;;;;;4973715;28;20057;-87
2023/12/02 00:32:47;;;;;;;5.50;4.13;;;;;;;;;;4975189;28;20478;-88
2023/12/02 00:35:13;;;;;;;5.13;4.00;;;;;;;;;;4971758;28;20035;-87
2023/12/02 00:37:38;;;;;;;5.85;4.22;;;;;;;;;;4973069;28;20061;-87
2023/12/02 00:40:05;;;;;;;5.78;4.32;;;;;;;;;;4977141;28;20023;-87
2023/12/02 00:42:31;;;;;;;6.40;4.18;;;;;;;;;;4971656;28;20031;-87
2023/12/02 00:44:56;;;;;;;6.22;4.38;;;;;;;;;;4967695;28;20038;-87
2023/12/02 00:47:21;;;;;;;7.15;4.88;;;;;;;;;;4968247;28;20049;-87
2023/12/02 00:49:47;;;;;;;6.75;5.05;;;;;;;;;;4970304;28;20034;-87
2023/12/02 00:52:12;;;;;;;5.97;4.70;;;;;;;;;;4970301;28;20039;-87
2023/12/02 00:54:41;;;;;;;5.95;4.65;;;;;;;;;;4978775;28;20030;-87
2023/12/02 00:57:06;;;;;;;5.38;3.83;;;;;;;;;;4971193;28;20030;-87
2023/12/02 00:59:31;;;;;;;4.55;3.65;;;;;;;;;;4970528;28;20047;-87
2023/12/02 01:01:57;;;;;;;4.68;3.50;;;;;;;;;;4969666;28;20039;-88
2023/12/02 01:04:22;;;;;;;4.88;3.97;;;;;;;;;;4972594;28;20043;-88
2023/12/02 01:06:48;;;;;;;4.82;3.72;;;;;;;;;;4968572;28;20041;-88
2023/12/02 01:09:13;;;;;;;4.65;3.65;;;;;;;;;;4972515;28;20070;-88
2023/12/02 01:11:39;;;;;;;5.85;3.92;;;;;;;;;;4969805;28;20058;-88
2023/12/02 01:14:04;;;;;;;5.13;3.70;;;;;;;;;;4969368;28;20469;-88
2023/12/02 01:16:30;;;;;;;5.15;3.75;;;;;;;;;;4966426;28;20054;-88
2023/12/02 01:18:55;;;;;;;4.75;3.72;;;;;;;;;;4970022;28;20069;-88
2023/12/02 01:21:21;;;;;;;5.57;3.70;;;;;;;;;;4967137;28;20031;-87
2023/12/02 01:23:46;;;;;;;5.20;3.70;;;;;;;;;;4967617;28;20040;-87
2023/12/02 01:26:11;;;;;;;5.22;3.80;;;;;;;;;;4975088;28;20046;-88
2023/12/02 01:28:40;;;;;;;4.72;3.50;;;;;;;;;;4982340;28;20491;-87
2023/12/02 01:31:06;;;;;;;4.93;3.45;;;;;;;;;;4973780;28;20051;-87
2023/12/02 01:33:31;;;;;;;4.65;3.50;;;;;;;;;;4971925;28;20408;-87
2023/12/02 01:35:57;;;;;;;5.18;3.70;;;;;;;;;;4972110;28;20493;-87
2023/12/02 01:38:22;;;;;;;4.40;3.15;;;;;;;;;;4967954;28;20394;-87
2023/12/02 01:40:48;;;;;;;4.25;3.10;;;;;;;;;;4973921;28;20050;-87
2023/12/02 01:43:25;;;;;;;4.13;3.03;;;;;;;;;;4965484;28;20035;-87
2023/12/02 01:45:51;;;;;;;4.75;3.50;;;;;;;;;;4986586;28;20050;-88
2023/12/02 01:48:23;;;;;;;4.53;3.20;;;;;;;;;;4969784;28;20026;-88
2023/12/02 01:50:48;;;;;;;5.32;3.45;;;;;;;;;;4967693;28;20122;-88
2023/12/02 01:53:14;;;;;;;4.40;3.30;;;;;;;;;;4968936;28;20070;-88
2023/12/02 01:55:39;;;;;;;4.30;3.33;;;;;;;;;;4972439;28;20053;-88
2023/12/02 01:58:05;;;;;;;4.80;3.20;;;;;;;;;;4966985;28;20088;-88
2023/12/02 02:00:30;;;;;;;4.50;3.40;;;;;;;;;;4973461;28;20520;-88
2023/12/02 02:02:56;;;;;;;4.30;3.22;;;;;;;;;;4970362;28;20030;-88
2023/12/02 02:05:22;;;;;;;5.30;3.08;;;;;;;;;;4976908;28;20051;-88
2023/12/02 02:07:47;;;;;;;4.32;3.00;;;;;;;;;;4973968;28;20027;-88
2023/12/02 02:10:13;;;;;;;4.55;3.40;;;;;;;;;;4966781;28;20027;-87
2023/12/02 02:12:38;;;;;;;5.78;4.18;;;;;;;;;;4971455;28;20475;-88
2023/12/02 02:15:04;;;;;;;5.80;4.78;;;;;;;;;;4966377;28;20062;-88
2023/12/02 02:17:29;;;;;;;5.50;4.20;;;;;;;;;;4965876;28;20066;-88
2023/12/02 02:19:55;;;;;;;5.20;3.85;;;;;;;;;;4971003;28;20091;-88
2023/12/02 02:22:20;;;;;;;5.72;4.35;;;;;;;;;;4972943;28;20481;-88
2023/12/02 02:24:46;;;;;;;5.40;3.95;;;;;;;;;;4971698;28;20097;-89
2023/12/02 02:27:11;;;;;;;6.70;4.80;;;;;;;;;;4975414;28;20042;-88
2023/12/02 02:29:37;;;;;;;6.85;4.57;;;;;;;;;;4968520;28;20135;-88
2023/12/02 02:32:02;;;;;;;5.20;4.00;;;;;;;;;;4974110;28;20041;-88
2023/12/02 02:34:28;;;;;;;5.00;3.50;;;;;;;;;;4973853;28;20057;-88
2023/12/02 02:36:53;;;;;;;4.60;3.38;;;;;;;;;;4965656;28;20109;-88
2023/12/02 02:39:19;;;;;;;5.22;3.50;;;;;;;;;;4966416;28;20043;-87
2023/12/02 02:41:45;;;;;;;4.72;3.67;;;;;;;;;;4969209;28;20043;-88
2023/12/02 02:44:10;;;;;;;4.80;3.75;;;;;;;;;;4982447;28;20029;-87
2023/12/02 02:46:36;;;;;;;5.57;4.13;;;;;;;;;;4967831;28;20524;-87
2023/12/02 02:49:02;;;;;;;6.95;4.18;;;;;;;;;;4970872;28;20042;-88
2023/12/02 02:51:28;;;;;;;4.57;3.45;;;;;;;;;;4969545;28;20023;-88
2023/12/02 02:53:54;;;;;;;5.60;4.07;;;;;;;;;;4976441;28;20134;-88
2023/12/02 02:56:20;;;;;;;5.38;4.35;;;;;;;;;;4969547;28;20055;-88
2023/12/02 02:58:45;;;;;;;5.60;4.18;;;;;;;;;;4970820;28;20049;-88
2023/12/02 03:01:11;;;;;;;6.57;4.50;;;;;;;;;;4968383;28;20027;-88
2023/12/02 03:03:36;;;;;;;6.68;4.40;;;;;;;;;;4969533;28;20408;-86
2023/12/02 03:06:02;;;;;;;5.38;4.28;;;;;;;;;;4968228;28;20046;-88
2023/12/02 03:08:27;;;;;;;6.05;4.05;;;;;;;;;;4969541;28;20030;-88
2023/12/02 03:10:53;;;;;;;5.30;4.00;;;;;;;;;;4969767;28;20477;-89
2023/12/02 03:13:18;;;;;;;5.60;3.88;;;;;;;;;;4966202;28;20030;-88
2023/12/02 03:15:44;;;;;;;5.13;3.85;;;;;;;;;;4968143;28;20047;-88
2023/12/02 03:18:09;;;;;;;5.47;3.80;;;;;;;;;;4968054;28;20035;-88
2023/12/02 03:20:35;;;;;;;4.75;3.80;;;;;;;;;;4967015;28;20103;-88
2023/12/02 03:23:00;;;;;;;4.53;3.50;;;;;;;;;;4968518;28;20077;-88
2023/12/02 03:25:26;;;;;;;5.10;3.60;;;;;;;;;;4965866;28;20046;-88
2023/12/02 03:27:51;;;;;;;4.88;3.60;;;;;;;;;;4970854;28;20038;-88
2023/12/02 03:30:16;;;;;;;4.70;3.40;;;;;;;;;;4966603;28;20057;-88
2023/12/02 03:32:42;;;;;;;4.18;3.20;;;;;;;;;;4970618;28;20560;-86
2023/12/02 03:35:09;;;;;;;5.18;3.60;;;;;;;;;;4973530;28;20035;-88
2023/12/02 03:37:38;;;;;;;5.13;3.65;;;;;;;;;;4989081;28;20027;-88
2023/12/02 03:40:05;;;;;;;3.88;3.38;;;;;;;;;;4981173;28;20039;-88
2023/12/02 03:42:30;;;;;;;4.78;3.40;;;;;;;;;;4966461;28;20098;-88
2023/12/02 03:44:56;;;;;;;4.20;3.13;;;;;;;;;;4969066;28;20073;-88
2023/12/02 03:47:22;;;;;;;4.30;3.45;;;;;;;;;;4974913;28;20037;-87
2023/12/02 03:49:47;;;;;;;7.55;4.68;;;;;;;;;;4973583;28;20035;-88
2023/12/02 03:52:13;;;;;;;9.23;5.32;;;;;;;;;;4969761;28;20046;-88
2023/12/02 03:54:38;;;;;;;7.32;5.20;;;;;;;;;;4968886;28;20051;-88
2023/12/02 03:57:05;;;;;;;7.90;5.43;;;;;;;;;;4983885;28;20086;-88
2023/12/02 03:59:31;;;;;;;5.88;4.05;;;;;;;;;;4967867;28;20043;-88
2023/12/02 04:01:57;;;;;;;6.03;4.20;;;;;;;;;;4970119;28;20045;-87
2023/12/02 04:04:23;;;;;;;4.32;3.58;;;;;;;;;;4964914;28;20047;-88
2023/12/02 04:06:48;;;;;;;4.05;3.08;;;;;;;;;;4968390;28;20042;-88
2023/12/02 04:09:16;;;;;;;4.10;3.10;;;;;;;;;;4972864;28;20077;-88
2023/12/02 04:11:46;;;;;;;4.03;2.92;;;;;;;;;;4970817;28;20031;-88
2023/12/02 04:14:12;;;;;;;4.97;3.13;;;;;;;;;;4970559;28;20050;-88
2023/12/02 04:16:41;;;;;;;4.85;3.10;;;;;;;;;;4967881;28;20489;-87
2023/12/02 04:19:08;;;;;;;4.20;3.10;;;;;;;;;;4964462;28;20035;-88
2023/12/02 04:21:35;;;;;;;4.57;3.47;;;;;;;;;;4967885;28;20095;-88
2023/12/02 04:24:02;;;;;;;4.25;3.00;;;;;;;;;;4971617;28;20515;-88
2023/12/02 04:26:27;;;;;;;3.90;2.85;;;;;;;;;;4969984;28;20039;-88
2023/12/02 04:28:52;;;;;;;3.78;2.97;;;;;;;;;;4970140;28;20085;-88
2023/12/02 04:31:18;;;;;;;3.85;2.70;;;;;;;;;;4973255;28;20051;-87
2023/12/02 04:33:44;;;;;;;3.55;2.60;;;;;;;;;;4969430;28;20071;-87
2023/12/02 04:36:10;;;;;;;3.40;2.67;;;;;;;;;;4966036;28;20039;-87
2023/12/02 04:38:36;;;;;;;3.40;2.58;;;;;;;;;;4964376;28;20046;-88
2023/12/02 04:41:01;;;;;;;3.60;2.75;;;;;;;;;;4962880;28;20417;-88
2023/12/02 04:43:27;;;;;;;4.03;2.92;;;;;;;;;;4970990;28;20030;-87
2023/12/02 04:45:52;;;;;;;5.03;3.10;;;;;;;;;;4983759;28;20047;-87
2023/12/02 04:48:18;;;;;;;3.78;2.80;;;;;;;;;;4966075;28;20454;-88
2023/12/02 04:50:43;;;;;;;4.07;3.00;;;;;;;;;;4971238;28;20035;-88
2023/12/02 04:53:09;;;;;;;4.38;3.20;;;;;;;;;;4967582;28;20046;-88
2023/12/02 04:55:35;;;;;;;4.18;2.95;;;;;;;;;;4967301;28;20033;-87
2023/12/02 04:58:01;;;;;;;3.63;2.80;;;;;;;;;;4971571;28;20042;-88
2023/12/02 05:00:27;;;;;;;3.83;2.92;;;;;;;;;;4968753;28;20095;-88
2023/12/02 05:02:53;;;;;;;4.25;3.20;;;;;;;;;;4984261;28;20047;-88
2023/12/02 05:05:19;;;;;;;3.72;2.95;;;;;;;;;;4965963;28;20035;-88
2023/12/02 05:07:45;;;;;;;3.90;2.80;;;;;;;;;;4971529;28;20130;-88
2023/12/02 05:10:10;;;;;;;3.47;2.78;;;;;;;;;;4964478;28;20035;-88
2023/12/02 05:12:36;;;;;;;4.40;2.92;;;;;;;;;;4964341;28;20090;-87
2023/12/02 05:15:03;;;;;;;4.00;2.85;;;;;;;;;;4964888;28;20086;-87
2023/12/02 05:17:28;;;;;;;4.53;3.10;;;;;;;;;;4967702;28;20027;-88
2023/12/02 05:19:54;;;;;;;3.97;2.78;;;;;;;;;;4965369;28;20026;-87
2023/12/02 05:22:20;;;;;;;3.90;2.90;;;;;;;;;;4973086;28;20035;-87
2023/12/02 05:24:45;;;;;;;3.58;2.83;;;;;;;;;;4969123;28;20026;-87
2023/12/02 05:27:11;;;;;;;3.78;2.88;;;;;;;;;;4969640;28;20552;-88
2023/12/02 05:29:36;;;;;;;4.03;2.90;;;;;;;;;;4972919;28;20472;-88
2023/12/02 05:32:02;;;;;;;3.35;2.72;;;;;;;;;;4965659;28;20508;-87
2023/12/02 05:34:28;;;;;;;3.85;2.80;;;;;;;;;;4972469;28;20035;-87
2023/12/02 05:36:54;;;;;;;3.88;2.78;;;;;;;;;;4975010;28;20043;-86
2023/12/02 05:39:19;;;;;;;3.70;2.70;;;;;;;;;;4965729;28;20017;-87
2023/12/02 05:41:45;;;;;;;3.80;2.83;;;;;;;;;;4969306;28;20054;-88
2023/12/02 05:44:10;;;;;;;4.65;3.10;;;;;;;;;;4975088;28;20026;-88
2023/12/02 05:46:37;;;;;;;3.50;2.78;;;;;;;;;;4968389;28;20019;-88
2023/12/02 05:49:02;;;;;;;3.90;2.80;;;;;;;;;;4972708;28;20062;-87
2023/12/02 05:51:28;;;;;;;3.95;2.95;;;;;;;;;;4974142;28;20513;-88
2023/12/02 05:53:53;;;;;;;4.25;3.20;;;;;;;;;;4976818;28;20089;-88
2023/12/02 05:56:21;;;;;;;4.10;3.03;;;;;;;;;;4982404;28;20042;-85
2023/12/02 05:58:48;;;;;;;4.60;3.08;;;;;;;;;;4971398;28;20038;-89
2023/12/02 06:01:22;;;;;;;4.13;2.83;;;;;;;;;;4974676;28;20037;-88
2023/12/02 06:03:49;;;;;;;4.60;3.30;;;;;;;;;;4971577;28;20031;-88
2023/12/02 06:06:14;;;;;;;4.82;3.35;;;;;;;;;;4987124;28;20500;-88
2023/12/02 06:08:40;;;;;;;4.05;3.42;;;;;;;;;;4976546;28;20027;-88
2023/12/02 06:11:06;;;;;;;4.30;3.15;;;;;;;;;;4975283;28;20404;-88
2023/12/02 06:13:31;;;;;;;4.05;2.88;;;;;;;;;;4968216;28;20050;-89
2023/12/02 06:15:57;;;;;;;3.67;2.78;;;;;;;;;;4976802;28;20057;-87
2023/12/02 06:18:22;;;;;;;4.40;3.20;;;;;;;;;;4981966;28;20031;-89
2023/12/02 06:20:48;;;;;;;4.65;3.28;;;;;;;;;;4977266;28;20025;-89
2023/12/02 06:23:13;;;;;;;3.63;2.90;;;;;;;;;;4965929;28;20063;-86
2023/12/02 06:25:39;;;;;;;4.20;2.88;;;;;;;;;;4969192;28;20026;-88
2023/12/02 06:28:04;;;;;;;4.25;3.20;;;;;;;;;;4971003;28;20114;-88
2023/12/02 06:30:31;;;;;;;3.60;2.90;;;;;;;;;;4970354;28;20025;-88
2023/12/02 06:32:56;;;;;;;4.60;2.90;;;;;;;;;;4976332;28;20026;-87
2023/12/02 06:35:22;;;;;;;3.80;2.80;;;;;;;;;;4977218;28;20034;-87
2023/12/02 06:37:48;;;;;;;5.20;3.33;;;;;;;;;;4974569;28;20374;-89
2023/12/02 06:40:13;;;;;;;4.80;2.70;;;;;;;;;;4971403;28;20113;-89
2023/12/02 06:42:39;;;;;;;3.80;2.88;;;;;;;;;;4971846;28;20082;-88
2023/12/02 06:45:05;;;;;;;4.47;3.17;;;;;;;;;;4984888;28;20051;-88
2023/12/02 06:47:31;;;;;;;4.65;2.97;;;;;;;;;;4970161;28;20031;-89
2023/12/02 06:49:56;;;;;;;3.55;2.90;;;;;;;;;;4998927;28;20018;-89
2023/12/02 06:52:22;;;;;;;4.45;3.22;;;;;;;;;;4976290;28;20031;-89
2023/12/02 06:54:47;;;;;;;4.57;3.30;;;;;;;;;;4976622;28;20023;-90
2023/12/02 06:57:13;;;;;;;4.10;2.92;;;;;;;;;;4973417;28;20043;-88
2023/12/02 06:59:38;;;;;;;3.97;3.10;;;;;;;;;;4975735;28;20114;-89
2023/12/02 07:02:04;;;;;;;4.35;3.17;;;;;;;;;;4966631;28;20073;-88
2023/12/02 07:04:29;;;;;;;4.75;3.05;;;;;;;;;;4974255;28;20026;-89
2023/12/02 07:06:55;;;;;;;7.63;3.38;;;;;;;;;;4972936;28;20026;-90
2023/12/02 07:09:20;;;;;;;5.65;3.40;;;;;;;;;;4974101;28;20539;-87
2023/12/02 07:11:46;;;;;;;4.88;3.53;;;;;;;;;;4971020;28;20030;-87
2023/12/02 07:14:11;;;;;;;4.72;3.47;;;;;;;;;;4970103;28;20046;-89
2023/12/02 07:16:36;;;;;;;4.47;2.90;;;;;;;;;;4965112;28;20118;-86
2023/12/02 07:19:02;;;;;;;3.33;2.78;;;;;;;;;;4970165;28;20035;-86
2023/12/02 07:21:27;;;;;;;4.65;3.00;;;;;;;;;;4964476;28;20417;-86
2023/12/02 07:23:53;;;;;;;3.95;2.80;;;;;;;;;;4979284;28;20045;-86
2023/12/02 07:26:18;;;;;;;3.08;2.40;;;;;;;;;;4971282;28;20516;-85
2023/12/02 07:28:44;;;;;;;3.60;2.55;;;;;;;;;;4969520;28;20041;-85
2023/12/02 07:31:16;;;;;;;3.83;2.38;;;;;;;;;;4975790;28;20034;-85
2023/12/02 07:33:42;;;;;;;3.45;2.28;;;;;;;;;;4976664;28;20042;-85
2023/12/02 07:36:08;;;;;;;2.95;2.10;;;;;;;;;;4970003;28;20023;-86
2023/12/02 07:38:33;;;;;;;2.70;2.17;;;;;;;;;;4972925;28;20046;-86
2023/12/02 07:40:59;;;;;;;3.95;2.10;;;;;;;;;;4976619;28;20050;-85
2023/12/02 07:43:25;;;;;;;3.20;2.30;;;;;;;;;;4969883;28;20102;-86
2023/12/02 07:45:50;;;;;;;3.30;2.33;;;;;;;;;;4977043;28;20019;-85
2023/12/02 07:48:16;;;;;;;3.08;2.35;;;;;;;;;;4971365;28;20038;-86
2023/12/02 07:50:42;;;;;;;4.18;2.35;;;;;;;;;;4966408;28;20031;-86
2023/12/02 07:53:07;;;;;;;5.80;2.88;;;;;;;;;;4968929;28;20030;-84
2023/12/02 07:55:33;;;;;;;3.80;2.83;;;;;;;;;;4972813;28;20026;-85
2023/12/02 07:57:59;;;;;;;4.40;3.22;;;;;;;;;;4975024;28;20031;-86
2023/12/02 08:00:24;;;;;;;5.43;3.97;;;;;;;;;;4978674;28;20023;-88
2023/12/02 08:02:50;;;;;;;7.00;4.07;;;;;;;;;;4981757;28;20035;-87
2023/12/02 08:05:15;;;;;;;7.10;4.47;;;;;;;;;;4971965;28;20441;-87
2023/12/02 08:07:41;;;;;;;6.47;4.53;;;;;;;;;;4968573;28;20065;-87
2023/12/02 08:10:09;;;;;;;7.65;4.90;;;;;;;;;;4966823;28;20011;-88
2023/12/02 08:12:35;;;;;;;7.63;5.40;;;;;;;;;;4970146;28;20117;-88
2023/12/02 08:15:01;;;;;;;7.25;5.10;;;;;;;;;;4969695;28;20075;-86
2023/12/02 08:17:27;;;;;;;10.63;6.32;;;;;;;;;;4971420;28;20122;-86
2023/12/02 08:19:52;;;;;;;9.60;6.25;;;;;;;;;;4967037;28;20702;-87
2023/12/02 08:22:21;;;;;;;10.15;6.78;;;;;;;;;;4972704;28;20035;-87
2023/12/02 08:24:46;;;;;;;11.50;7.35;;;;;;;;;;4969152;28;20035;-88
2023/12/02 08:27:12;;;;;;;12.88;7.53;;;;;;;;;;4964100;28;20390;-86
2023/12/02 08:29:37;;;;;;;13.00;7.68;;;;;;;;;;4962299;28;20090;-87
2023/12/02 08:32:03;;;;;;;12.55;8.10;;;;;;;;;;4975573;28;20035;-89
2023/12/02 08:34:29;;;;;;;12.48;7.85;;;;;;;;;;4972640;28;20031;-86
2023/12/02 08:36:55;;;;;;;13.13;7.65;;;;;;;;;;4967787;28;20101;-89
2023/12/02 08:39:21;;;;;;;11.80;7.38;;;;;;;;;;4964501;28;20035;-88
2023/12/02 08:41:46;;;;;;;12.48;8.30;;;;;;;;;;4985341;28;20147;-87
2023/12/02 08:44:12;;;;;;;15.15;8.68;;;;;;;;;;4970981;28;20542;-86
2023/12/02 08:46:37;;;;;;;14.32;7.97;;;;;;;;;;4967941;28;20035;-88
2023/12/02 08:49:03;;;;;;;13.50;7.93;;;;;;;;;;4951107;28;20126;-88
2023/12/02 08:51:28;;;;;;;13.95;7.65;;;;;;;;;;4969630;28;20030;-88
2023/12/02 08:53:59;;;;;;;14.77;8.23;;;;;;;;;;4974135;28;20112;-88
2023/12/02 08:56:26;;;;;;;14.50;9.00;;;;;;;;;;4967364;28;20039;-88
2023/12/02 08:58:52;;;;;;;14.13;8.10;;;;;;;;;;4974359;28;20118;-89
2023/12/02 09:01:17;;;;;;;14.98;8.82;;;;;;;;;;4974861;28;20118;-89
2023/12/02 09:03:43;;;;;;;15.77;8.60;;;;;;;;;;4969388;28;20043;-89
2023/12/02 09:06:09;;;;;;;15.82;8.70;;;;;;;;;;4965952;28;20027;-88
2023/12/02 09:08:34;;;;;;;16.40;8.70;;;;;;;;;;4978562;28;20035;-89
2023/12/02 09:11:00;;;;;;;15.10;9.25;;;;;;;;;;4979172;28;20062;-89
2023/12/02 09:13:43;;;;;;;15.80;9.02;;;;;;;;;;4981158;28;20022;-90
2023/12/02 09:16:19;;;;;;;13.77;8.48;;;;;;;;;;4986231;28;20042;-89
2023/12/02 09:18:45;;;;;;;14.57;8.77;;;;;;;;;;4970152;28;20501;-89
2023/12/02 09:21:44;;;;;;;15.25;8.57;;;;;;;;;;4964509;28;20024;-90
2023/12/02 09:24:35;;;;;;;16.05;8.98;;;;;;;;;;4971080;28;20041;-89
2023/12/02 09:27:05;;;;;;;14.38;8.43;;;;;;;;;;4976886;28;20038;-89
2023/12/02 09:29:43;;;;;;;14.70;9.07;;;;;;;;;;4971804;28;20126;-89
2023/12/02 09:32:36;;;;;;;18.50;9.68;;;;;;;;;;4975398;28;20039;-88
2023/12/02 09:35:03;;;;;;;15.52;9.18;;;;;;;;;;4970898;28;20030;-88
2023/12/02 09:37:56;;;;;;;15.38;9.30;;;;;;;;;;4967145;28;20057;-88
2023/12/02 09:40:23;;;;;;;15.82;9.20;;;;;;;;;;4966035;28;20046;-88
2023/12/02 09:42:55;;;;;;;16.95;9.35;;;;;;;;;;4980626;28;20019;-88
2023/12/02 09:45:24;;;;;;;17.42;8.63;;;;;;;;;;4975884;28;20094;-87
2023/12/02 09:48:10;;;;;;;16.02;8.90;;;;;;;;;;4969310;28;20069;-88
2023/12/02 09:51:27;;;;;;;14.73;8.82;;;;;;;;;;4969574;28;20027;-88
2023/12/02 09:54:15;;;;;;;18.77;9.13;;;;;;;;;;4950581;28;20051;-87
2023/12/02 09:56:49;;;;;;;17.52;9.48;;;;;;;;;;4971191;28;20034;-86
2023/12/02 09:59:28;;;;;;;16.30;9.40;;;;;;;;;;4968904;28;20099;-86
2023/12/02 10:02:14;;;;;;;17.77;9.93;;;;;;;;;;4968940;28;20050;-87
2023/12/02 10:04:45;;;;;;;17.75;10.15;;;;;;;;;;4970529;28;20499;-86
2023/12/02 10:07:18;;;;;;;18.95;10.57;;;;;;;;;;4968034;28;20056;-87
2023/12/02 10:10:06;;;;;;;21.50;11.35;;;;;;;;;;4968872;28;20038;-88
2023/12/02 10:13:18;;;;;;;18.48;10.10;;;;;;;;;;4968616;28;20023;-88
2023/12/02 10:15:47;;;;;;;22.38;10.77;;;;;;;;;;4911414;29;20046;-88
2023/12/02 10:18:15;;;;;;;20.25;10.68;;;;;;;;;;4910937;29;20590;-88
2023/12/02 10:20:42;;;;;;;21.30;11.30;;;;;;;;;;4943963;28;20581;-87
2023/12/02 10:23:51;;;;;;;19.20;11.32;;;;;;;;;;4965887;28;20031;-88
2023/12/02 10:26:28;;;;;;;20.58;10.80;;;;;;;;;;4973476;28;20117;-88
2023/12/02 10:28:59;;;;;;;20.73;10.95;;;;;;;;;;4975449;28;20045;-87
2023/12/02 10:31:27;;;;;;;20.67;10.52;;;;;;;;;;4965293;28;20172;-88
2023/12/02 10:34:04;;;;;;;21.08;10.82;;;;;;;;;;4965752;28;20018;-88
2023/12/02 10:36:33;;;;;;;18.98;10.77;;;;;;;;;;4972399;28;20031;-88
2023/12/02 10:39:10;;;;;;;17.77;10.23;;;;;;;;;;4972814;28;20035;-88
2023/12/02 10:42:00;;;;;;;17.05;10.02;;;;;;;;;;4967699;28;20032;-88
2023/12/02 10:44:30;;;;;;;17.45;10.35;;;;;;;;;;4969938;28;20412;-88
2023/12/02 10:46:57;;;;;;;20.15;10.90;;;;;;;;;;4972489;28;20045;-88
2023/12/02 10:49:23;;;;;;;20.27;9.93;;;;;;;;;;4973395;28;20042;-88
2023/12/02 10:51:50;;;;;;;18.98;9.82;;;;;;;;;;4964223;28;20073;-88
2023/12/02 10:54:17;;;;;;;20.08;11.20;;;;;;;;;;4983544;28;20035;-88
2023/12/02 10:56:48;;;;;;;15.30;8.48;;;;;;;;;;4971762;28;20033;-86
2023/12/02 10:59:17;;;;;;;16.88;9.02;;;;;;;;;;4969002;28;20090;-86
2023/12/02 11:01:45;;;;;;;18.05;9.55;;;;;;;;;;4968193;28;20034;-86
2023/12/02 11:04:23;;;;;;;18.15;9.82;;;;;;;;;;4966651;28;20441;-86
2023/12/02 11:06:51;;;;;;;18.33;10.02;;;;;;;;;;4967332;28;20039;-86
2023/12/02 11:09:41;;;;;;;16.35;8.95;;;;;;;;;;4960058;28;20094;-86
2023/12/02 11:12:17;;;;;;;16.23;9.07;;;;;;;;;;4962372;28;20102;-87
2023/12/02 11:14:46;;;;;;;14.45;8.43;;;;;;;;;;4974380;28;20041;-88
2023/12/02 11:17:19;;;;;;;15.40;8.82;;;;;;;;;;4966655;28;20037;-86
2023/12/02 11:20:08;;;;;;;12.77;7.85;;;;;;;;;;4967081;28;20035;-86
2023/12/02 11:23:07;;;;;;;16.75;8.48;;;;;;;;;;4967453;28;20071;-86
2023/12/02 11:25:51;;;;;;;15.23;8.18;;;;;;;;;;4980808;28;20026;-88
2023/12/02 11:28:42;;;;;;;13.80;7.82;;;;;;;;;;4969817;28;20053;-90
2023/12/02 11:31:14;;;;;;;13.85;8.02;;;;;;;;;;4958699;28;20062;-88
2023/12/02 11:33:58;;;;;;;14.85;7.85;;;;;;;;;;4979790;28;20041;-89
2023/12/02 11:36:44;;;;;;;14.25;8.20;;;;;;;;;;4969420;28;20493;-87
2023/12/02 11:39:15;;;;;;;13.75;7.70;;;;;;;;;;4969490;28;20034;-88
2023/12/02 11:42:00;;;;;;;16.20;8.32;;;;;;;;;;4967203;28;20035;-88
2023/12/02 11:44:26;;;;;;;13.85;7.63;;;;;;;;;;4965763;28;20042;-88
2023/12/02 11:47:13;;;;;;;13.90;7.13;;;;;;;;;;4965451;28;20035;-88
2023/12/02 11:49:59;;;;;;;13.07;7.53;;;;;;;;;;4964763;28;20027;-88
2023/12/02 11:52:40;;;;;;;15.20;7.57;;;;;;;;;;4965006;28;20416;-87
2023/12/02 11:55:15;;;;;;;13.43;7.18;;;;;;;;;;4964956;28;20038;-88
2023/12/02 11:58:26;;;;;;;13.65;7.72;;;;;;;;;;4965803;28;20042;-86
2023/12/02 12:01:19;;;;;;;12.98;7.20;;;;;;;;;;4958229;28;20083;-86
2023/12/02 12:04:02;;;;;;;17.95;8.48;;;;;;;;;;4967036;28;20046;-86
2023/12/02 12:06:31;;;;;;;13.30;7.82;;;;;;;;;;4964998;28;20046;-87
2023/12/02 12:09:16;;;;;;;13.40;7.13;;;;;;;;;;4966531;28;20097;-88
2023/12/02 12:11:43;;;;;;;11.63;7.15;;;;;;;;;;4965625;28;20089;-87
2023/12/02 12:14:09;;;;;;;13.27;7.80;;;;;;;;;;4964772;28;20061;-89
2023/12/02 12:16:34;;;;;;;13.23;7.28;;;;;;;;;;4954213;28;20058;-90
2023/12/02 12:19:00;;;;;;;13.77;7.82;;;;;;;;;;4962993;28;20059;-89
2023/12/02 12:21:26;;;;;;;14.68;7.70;;;;;;;;;;4966841;28;20058;-90
2023/12/02 12:23:51;;;;;;;13.10;7.47;;;;;;;;;;4965730;28;20038;-88
2023/12/02 12:26:17;;;;;;;15.30;7.38;;;;;;;;;;4967621;28;20030;-89
2023/12/02 12:28:42;;;;;;;14.10;7.68;;;;;;;;;;4972815;28;20110;-88
2023/12/02 12:31:11;;;;;;;13.27;7.50;;;;;;;;;;4975604;28;20030;-89
2023/12/02 12:33:38;;;;;;;14.00;7.57;;;;;;;;;;4967661;28;20047;-89
2023/12/02 12:36:05;;;;;;;13.55;7.70;;;;;;;;;;4966393;28;20030;-89
2023/12/02 12:38:31;;;;;;;12.35;6.97;;;;;;;;;;4968916;28;20038;-89
2023/12/02 12:40:56;;;;;;;13.18;8.00;;;;;;;;;;4967500;28;20043;-89
2023/12/02 12:43:22;;;;;;;14.20;7.75;;;;;;;;;;4981338;28;20080;-89
2023/12/02 12:45:50;;;;;;;14.40;7.95;;;;;;;;;;4985119;28;20496;-89
2023/12/02 12:48:24;;;;;;;14.27;8.05;;;;;;;;;;4977309;28;20027;-89
2023/12/02 12:50:50;;;;;;;14.15;7.40;;;;;;;;;;4974774;28;20512;-88
2023/12/02 12:53:21;;;;;;;14.00;7.38;;;;;;;;;;4978131;28;20018;-88
2023/12/02 12:55:53;;;;;;;13.68;7.70;;;;;;;;;;4972974;28;20095;-88
2023/12/02 12:58:21;;;;;;;13.05;6.95;;;;;;;;;;4972566;28;20038;-89
2023/12/02 13:00:50;;;;;;;12.15;7.13;;;;;;;;;;4973564;28;20023;-88
2023/12/02 13:03:28;;;;;;;12.38;7.20;;;;;;;;;;4975862;28;20031;-88
2023/12/02 13:06:15;;;;;;;14.10;7.18;;;;;;;;;;4971786;28;20043;-88
2023/12/02 13:09:11;;;;;;;12.23;7.25;;;;;;;;;;4980340;28;20112;-88
2023/12/02 13:12:01;;;;;;;13.02;7.40;;;;;;;;;;4969823;28;20042;-88
2023/12/02 13:14:33;;;;;;;12.75;7.10;;;;;;;;;;4969844;28;20122;-88
2023/12/02 13:17:00;;;;;;;12.43;7.40;;;;;;;;;;4967379;28;20035;-88
2023/12/02 13:19:28;;;;;;;14.38;7.65;;;;;;;;;;4969208;28;20342;-87
2023/12/02 13:21:55;;;;;;;13.80;7.20;;;;;;;;;;4975003;28;20074;-89
2023/12/02 13:24:23;;;;;;;12.50;6.97;;;;;;;;;;4969672;28;20051;-89
2023/12/02 13:26:48;;;;;;;13.95;7.57;;;;;;;;;;4976302;28;20038;-90
2023/12/02 13:29:17;;;;;;;12.07;6.60;;;;;;;;;;4976901;28;20035;-88
2023/12/02 13:31:44;;;;;;;14.60;7.43;;;;;;;;;;4968457;28;20055;-88
2023/12/02 13:34:30;;;;;;;16.88;8.40;;;;;;;;;;4990919;28;20037;-88
2023/12/02 13:36:56;;;;;;;11.98;7.05;;;;;;;;;;4979115;28;20045;-89
2023/12/02 13:39:26;;;;;;;12.68;6.90;;;;;;;;;;4977046;28;20038;-88
2023/12/02 13:41:53;;;;;;;12.50;7.32;;;;;;;;;;4979120;28;20496;-89
2023/12/02 13:44:21;;;;;;;13.23;7.07;;;;;;;;;;4978266;28;20176;-89
2023/12/02 13:46:58;;;;;;;12.18;7.03;;;;;;;;;;4970819;28;20050;-88
2023/12/02 13:49:44;;;;;;;13.13;7.13;;;;;;;;;;4971508;28;20196;-88
2023/12/02 13:52:40;;;;;;;11.50;6.82;;;;;;;;;;4980721;28;20057;-88
2023/12/02 13:55:06;;;;;;;11.23;6.75;;;;;;;;;;4987655;28;20069;-86
2023/12/02 13:57:51;;;;;;;10.88;6.43;;;;;;;;;;4970986;28;20023;-87
2023/12/02 14:00:23;;;;;;;10.88;6.57;;;;;;;;;;4974442;28;20047;-88
2023/12/02 14:02:55;;;;;;;14.98;7.18;;;;;;;;;;4980230;28;20046;-87
2023/12/02 14:05:25;;;;;;;11.55;6.45;;;;;;;;;;4971940;28;20055;-88
2023/12/02 14:07:51;;;;;;;13.73;7.43;;;;;;;;;;4971782;28;20046;-88
2023/12/02 14:10:21;;;;;;;12.38;6.75;;;;;;;;;;4973608;28;20033;-87
2023/12/02 14:13:05;;;;;;;14.82;7.78;;;;;;;;;;4976171;28;20484;-87
2023/12/02 14:16:02;;;;;;;13.57;7.35;;;;;;;;;;4975359;28;20065;-87
2023/12/02 14:18:33;;;;;;;12.38;6.70;;;;;;;;;;4966694;28;20086;-86
2023/12/02 14:21:36;;;;;;;13.95;7.80;;;;;;;;;;4970317;28;20034;-85
2023/12/02 14:24:08;;;;;;;13.75;7.63;;;;;;;;;;4971148;28;20035;-85
2023/12/02 14:26:49;;;;;;;15.68;7.93;;;;;;;;;;4969463;28;20039;-85
2023/12/02 14:29:33;;;;;;;13.95;7.13;;;;;;;;;;4971239;28;20436;-85
2023/12/02 14:32:24;;;;;;;13.15;6.88;;;;;;;;;;4989145;28;20033;-85
2023/12/02 14:35:28;;;;;;;15.18;7.15;;;;;;;;;;4966951;28;20497;-88
2023/12/02 14:38:18;;;;;;;13.60;7.30;;;;;;;;;;4981621;28;20524;-84
2023/12/02 14:40:49;;;;;;;13.02;6.78;;;;;;;;;;4973744;28;20318;-84
2023/12/02 14:43:51;;;;;;;11.88;6.75;;;;;;;;;;4975397;28;20067;-84
2023/12/02 14:46:16;;;;;;;12.98;7.07;;;;;;;;;;4974935;28;20066;-85
2023/12/02 14:48:43;;;;;;;13.35;7.22;;;;;;;;;;4976842;28;20026;-83
2023/12/02 14:51:09;;;;;;;15.32;7.60;;;;;;;;;;4969321;28;20043;-85